sensor_id;sensor_type;location;lat;lon;timestamp;P1;durP1;ratioP1;P2;durP2;ratioP2
28760;SDS011;15917;50.014;8.352;2022-07-23T00:00:07;8.93;;;3.83;;
28760;SDS011;15917;50.014;8.352;2022-07-23T00:02:33;6.47;;;4.28;;
28760;SDS011;15917;50.014;8.352;2022-07-23T00:04:59;8.70;;;4.32;;
28760;SDS011;15917;50.014;8.352;2022-07-23T00:07:24;7.53;;;4.55;;
28760;SDS011;15917;50.014;8.352;2022-07-23T00:09:50;4.97;;;3.65;;
28760;SDS011;15917;50.014;8.352;2022-07-23T00:12:16;7.93;;;4.68;;
28760;SDS011;15917;50.014;8.352;2022-07-23T00:14:42;7.78;;;4.35;;
28760;SDS011;15917;50.014;8.352;2022-07-23T00:17:08;10.07;;;4.28;;
28760;SDS011;15917;50.014;8.352;2022-07-23T00:19:33;6.80;;;4.03;;
28760;SDS011;15917;50.014;8.352;2022-07-23T00:21:59;8.13;;;4.60;;
28760;SDS011;15917;50.014;8.352;2022-07-23T00:24:25;12.32;;;3.72;;
28760;SDS011;15917;50.014;8.352;2022-07-23T00:26:50;9.05;;;3.65;;
28760;SDS011;15917;50.014;8.352;2022-07-23T00:29:16;5.32;;;3.83;;
28760;SDS011;15917;50.014;8.352;2022-07-23T00:31:42;10.48;;;4.85;;
28760;SDS011;15917;50.014;8.352;2022-07-23T00:34:08;7.80;;;4.57;;
28760;SDS011;15917;50.014;8.352;2022-07-23T00:36:34;5.90;;;4.20;;
28760;SDS011;15917;50.014;8.352;2022-07-23T00:39:00;6.43;;;3.65;;
28760;SDS011;15917;50.014;8.352;2022-07-23T00:41:25;6.80;;;4.13;;
28760;SDS011;15917;50.014;8.352;2022-07-23T00:43:51;7.45;;;4.53;;
28760;SDS011;15917;50.014;8.352;2022-07-23T00:46:23;9.13;;;4.35;;
28760;SDS011;15917;50.014;8.352;2022-07-23T00:48:50;11.90;;;4.93;;
28760;SDS011;15917;50.014;8.352;2022-07-23T00:51:16;7.68;;;3.95;;
28760;SDS011;15917;50.014;8.352;2022-07-23T00:53:42;8.55;;;4.40;;
28760;SDS011;15917;50.014;8.352;2022-07-23T00:56:09;7.75;;;4.75;;
28760;SDS011;15917;50.014;8.352;2022-07-23T00:58:35;5.80;;;4.30;;
28760;SDS011;15917;50.014;8.352;2022-07-23T01:01:03;7.22;;;4.35;;
28760;SDS011;15917;50.014;8.352;2022-07-23T01:03:29;7.25;;;4.57;;
28760;SDS011;15917;50.014;8.352;2022-07-23T01:05:55;7.50;;;4.30;;
28760;SDS011;15917;50.014;8.352;2022-07-23T01:08:21;7.22;;;4.07;;
28760;SDS011;15917;50.014;8.352;2022-07-23T01:10:48;9.00;;;4.13;;
28760;SDS011;15917;50.014;8.352;2022-07-23T01:13:16;6.47;;;4.28;;
28760;SDS011;15917;50.014;8.352;2022-07-23T01:15:42;14.23;;;4.28;;
28760;SDS011;15917;50.014;8.352;2022-07-23T01:18:08;10.93;;;4.53;;
28760;SDS011;15917;50.014;8.352;2022-07-23T01:23:01;6.90;;;4.10;;
28760;SDS011;15917;50.014;8.352;2022-07-23T01:25:28;14.98;;;4.60;;
28760;SDS011;15917;50.014;8.352;2022-07-23T01:28:00;7.55;;;4.85;;
28760;SDS011;15917;50.014;8.352;2022-07-23T01:30:26;10.00;;;4.53;;
28760;SDS011;15917;50.014;8.352;2022-07-23T01:32:53;8.43;;;4.88;;
28760;SDS011;15917;50.014;8.352;2022-07-23T01:35:19;5.60;;;3.95;;
28760;SDS011;15917;50.014;8.352;2022-07-23T01:37:46;6.28;;;4.75;;
28760;SDS011;15917;50.014;8.352;2022-07-23T01:40:12;9.30;;;4.80;;
28760;SDS011;15917;50.014;8.352;2022-07-23T01:42:38;9.90;;;5.13;;
28760;SDS011;15917;50.014;8.352;2022-07-23T01:45:04;7.13;;;4.63;;
28760;SDS011;15917;50.014;8.352;2022-07-23T01:47:32;11.73;;;5.82;;
28760;SDS011;15917;50.014;8.352;2022-07-23T01:49:57;8.27;;;5.30;;
28760;SDS011;15917;50.014;8.352;2022-07-23T01:52:52;9.73;;;5.32;;
28760;SDS011;15917;50.014;8.352;2022-07-23T01:55:17;7.22;;;4.75;;
28760;SDS011;15917;50.014;8.352;2022-07-23T01:57:43;9.98;;;5.10;;
28760;SDS011;15917;50.014;8.352;2022-07-23T02:00:11;11.43;;;5.20;;
28760;SDS011;15917;50.014;8.352;2022-07-23T02:02:43;12.40;;;4.78;;
28760;SDS011;15917;50.014;8.352;2022-07-23T02:05:09;10.13;;;5.50;;
28760;SDS011;15917;50.014;8.352;2022-07-23T02:07:35;12.02;;;5.30;;
28760;SDS011;15917;50.014;8.352;2022-07-23T02:10:02;10.73;;;4.63;;
28760;SDS011;15917;50.014;8.352;2022-07-23T02:12:28;9.65;;;5.50;;
28760;SDS011;15917;50.014;8.352;2022-07-23T02:14:53;8.20;;;5.40;;
28760;SDS011;15917;50.014;8.352;2022-07-23T02:17:19;9.88;;;6.32;;
28760;SDS011;15917;50.014;8.352;2022-07-23T02:19:45;10.20;;;5.93;;
28760;SDS011;15917;50.014;8.352;2022-07-23T02:22:11;6.28;;;4.72;;
28760;SDS011;15917;50.014;8.352;2022-07-23T02:24:36;8.30;;;4.90;;
28760;SDS011;15917;50.014;8.352;2022-07-23T02:27:02;7.93;;;4.43;;
28760;SDS011;15917;50.014;8.352;2022-07-23T02:29:28;8.48;;;4.82;;
28760;SDS011;15917;50.014;8.352;2022-07-23T02:31:53;7.82;;;4.60;;
28760;SDS011;15917;50.014;8.352;2022-07-23T02:34:19;9.98;;;4.90;;
28760;SDS011;15917;50.014;8.352;2022-07-23T02:36:45;9.20;;;5.35;;
28760;SDS011;15917;50.014;8.352;2022-07-23T02:39:10;8.68;;;5.15;;
28760;SDS011;15917;50.014;8.352;2022-07-23T02:41:37;9.75;;;5.18;;
28760;SDS011;15917;50.014;8.352;2022-07-23T02:44:03;9.57;;;5.25;;
28760;SDS011;15917;50.014;8.352;2022-07-23T02:46:29;7.32;;;4.57;;
28760;SDS011;15917;50.014;8.352;2022-07-23T02:48:55;8.38;;;5.25;;
28760;SDS011;15917;50.014;8.352;2022-07-23T02:51:21;8.25;;;5.10;;
28760;SDS011;15917;50.014;8.352;2022-07-23T02:53:55;11.95;;;5.30;;
28760;SDS011;15917;50.014;8.352;2022-07-23T02:56:20;10.18;;;4.50;;
28760;SDS011;15917;50.014;8.352;2022-07-23T02:58:46;8.20;;;4.97;;
28760;SDS011;15917;50.014;8.352;2022-07-23T03:01:12;8.25;;;4.60;;
28760;SDS011;15917;50.014;8.352;2022-07-23T03:03:38;9.40;;;4.47;;
28760;SDS011;15917;50.014;8.352;2022-07-23T03:06:04;11.02;;;5.03;;
28760;SDS011;15917;50.014;8.352;2022-07-23T03:08:30;9.43;;;5.13;;
28760;SDS011;15917;50.014;8.352;2022-07-23T03:10:55;8.68;;;4.85;;
28760;SDS011;15917;50.014;8.352;2022-07-23T03:13:21;11.90;;;4.90;;
28760;SDS011;15917;50.014;8.352;2022-07-23T03:15:47;8.57;;;5.35;;
28760;SDS011;15917;50.014;8.352;2022-07-23T03:18:12;7.10;;;5.10;;
28760;SDS011;15917;50.014;8.352;2022-07-23T03:20:38;12.43;;;5.18;;
28760;SDS011;15917;50.014;8.352;2022-07-23T03:23:03;11.23;;;6.00;;
28760;SDS011;15917;50.014;8.352;2022-07-23T03:25:31;8.65;;;5.38;;
28760;SDS011;15917;50.014;8.352;2022-07-23T03:27:56;9.75;;;5.70;;
28760;SDS011;15917;50.014;8.352;2022-07-23T03:30:24;8.35;;;5.00;;
28760;SDS011;15917;50.014;8.352;2022-07-23T03:32:50;9.27;;;5.28;;
28760;SDS011;15917;50.014;8.352;2022-07-23T03:35:16;10.90;;;5.93;;
28760;SDS011;15917;50.014;8.352;2022-07-23T03:37:55;9.20;;;5.78;;
28760;SDS011;15917;50.014;8.352;2022-07-23T03:40:21;11.82;;;6.03;;
28760;SDS011;15917;50.014;8.352;2022-07-23T03:42:47;7.95;;;5.38;;
28760;SDS011;15917;50.014;8.352;2022-07-23T03:45:13;11.98;;;5.85;;
28760;SDS011;15917;50.014;8.352;2022-07-23T03:47:38;9.65;;;5.25;;
28760;SDS011;15917;50.014;8.352;2022-07-23T03:50:04;9.45;;;5.43;;
28760;SDS011;15917;50.014;8.352;2022-07-23T03:52:31;8.77;;;5.57;;
28760;SDS011;15917;50.014;8.352;2022-07-23T03:54:57;13.07;;;6.00;;
28760;SDS011;15917;50.014;8.352;2022-07-23T03:57:23;8.63;;;5.60;;
28760;SDS011;15917;50.014;8.352;2022-07-23T03:59:49;6.38;;;4.97;;
28760;SDS011;15917;50.014;8.352;2022-07-23T04:02:15;11.85;;;5.32;;
28760;SDS011;15917;50.014;8.352;2022-07-23T04:04:41;10.48;;;5.47;;
28760;SDS011;15917;50.014;8.352;2022-07-23T04:07:07;14.55;;;6.05;;
28760;SDS011;15917;50.014;8.352;2022-07-23T04:09:32;9.07;;;5.68;;
28760;SDS011;15917;50.014;8.352;2022-07-23T04:11:59;7.32;;;5.53;;
28760;SDS011;15917;50.014;8.352;2022-07-23T04:14:24;9.95;;;5.70;;
28760;SDS011;15917;50.014;8.352;2022-07-23T04:16:50;10.25;;;5.90;;
28760;SDS011;15917;50.014;8.352;2022-07-23T04:19:17;10.35;;;5.20;;
28760;SDS011;15917;50.014;8.352;2022-07-23T04:21:59;8.90;;;5.13;;
28760;SDS011;15917;50.014;8.352;2022-07-23T04:24:25;9.93;;;4.68;;
28760;SDS011;15917;50.014;8.352;2022-07-23T04:26:51;10.57;;;5.53;;
28760;SDS011;15917;50.014;8.352;2022-07-23T04:29:18;8.55;;;5.10;;
28760;SDS011;15917;50.014;8.352;2022-07-23T04:31:44;13.90;;;5.05;;
28760;SDS011;15917;50.014;8.352;2022-07-23T04:34:10;8.80;;;5.57;;
28760;SDS011;15917;50.014;8.352;2022-07-23T04:36:35;8.85;;;5.95;;
28760;SDS011;15917;50.014;8.352;2022-07-23T04:39:01;8.70;;;5.50;;
28760;SDS011;15917;50.014;8.352;2022-07-23T04:41:27;12.52;;;5.97;;
28760;SDS011;15917;50.014;8.352;2022-07-23T04:43:52;17.60;;;5.88;;
28760;SDS011;15917;50.014;8.352;2022-07-23T04:46:18;10.07;;;5.93;;
28760;SDS011;15917;50.014;8.352;2022-07-23T04:48:47;10.05;;;5.43;;
28760;SDS011;15917;50.014;8.352;2022-07-23T04:51:13;10.13;;;6.82;;
28760;SDS011;15917;50.014;8.352;2022-07-23T04:53:38;8.30;;;5.88;;
28760;SDS011;15917;50.014;8.352;2022-07-23T04:56:04;9.20;;;6.30;;
28760;SDS011;15917;50.014;8.352;2022-07-23T04:58:31;15.63;;;6.50;;
28760;SDS011;15917;50.014;8.352;2022-07-23T05:00:57;9.45;;;6.18;;
28760;SDS011;15917;50.014;8.352;2022-07-23T05:03:23;13.77;;;6.57;;
28760;SDS011;15917;50.014;8.352;2022-07-23T05:05:49;9.55;;;5.95;;
28760;SDS011;15917;50.014;8.352;2022-07-23T05:08:16;11.25;;;6.28;;
28760;SDS011;15917;50.014;8.352;2022-07-23T05:10:48;8.98;;;6.05;;
28760;SDS011;15917;50.014;8.352;2022-07-23T05:13:14;12.05;;;6.50;;
28760;SDS011;15917;50.014;8.352;2022-07-23T05:15:41;7.83;;;5.27;;
28760;SDS011;15917;50.014;8.352;2022-07-23T05:18:07;11.35;;;6.05;;
28760;SDS011;15917;50.014;8.352;2022-07-23T05:20:33;13.00;;;5.60;;
28760;SDS011;15917;50.014;8.352;2022-07-23T05:22:59;9.20;;;5.90;;
28760;SDS011;15917;50.014;8.352;2022-07-23T05:25:25;13.95;;;5.65;;
28760;SDS011;15917;50.014;8.352;2022-07-23T05:27:50;14.65;;;5.97;;
28760;SDS011;15917;50.014;8.352;2022-07-23T05:30:17;10.77;;;5.35;;
28760;SDS011;15917;50.014;8.352;2022-07-23T05:32:45;10.98;;;5.20;;
28760;SDS011;15917;50.014;8.352;2022-07-23T05:35:14;10.70;;;6.55;;
28760;SDS011;15917;50.014;8.352;2022-07-23T05:37:45;10.20;;;5.93;;
28760;SDS011;15917;50.014;8.352;2022-07-23T05:40:11;9.48;;;5.10;;
28760;SDS011;15917;50.014;8.352;2022-07-23T05:42:38;11.18;;;6.40;;
28760;SDS011;15917;50.014;8.352;2022-07-23T05:45:05;9.93;;;5.93;;
28760;SDS011;15917;50.014;8.352;2022-07-23T05:47:40;12.13;;;6.10;;
28760;SDS011;15917;50.014;8.352;2022-07-23T05:50:13;12.88;;;6.03;;
28760;SDS011;15917;50.014;8.352;2022-07-23T05:52:51;10.80;;;6.00;;
28760;SDS011;15917;50.014;8.352;2022-07-23T05:55:36;8.80;;;5.70;;
28760;SDS011;15917;50.014;8.352;2022-07-23T05:58:02;12.05;;;5.85;;
28760;SDS011;15917;50.014;8.352;2022-07-23T06:00:30;14.95;;;5.63;;
28760;SDS011;15917;50.014;8.352;2022-07-23T06:02:56;10.02;;;5.80;;
28760;SDS011;15917;50.014;8.352;2022-07-23T06:05:23;12.45;;;6.13;;
28760;SDS011;15917;50.014;8.352;2022-07-23T06:07:51;12.90;;;5.53;;
28760;SDS011;15917;50.014;8.352;2022-07-23T06:10:18;11.07;;;6.03;;
28760;SDS011;15917;50.014;8.352;2022-07-23T06:12:44;9.95;;;5.53;;
28760;SDS011;15917;50.014;8.352;2022-07-23T06:15:10;9.10;;;5.82;;
28760;SDS011;15917;50.014;8.352;2022-07-23T06:17:36;7.72;;;4.75;;
28760;SDS011;15917;50.014;8.352;2022-07-23T06:20:05;9.85;;;4.63;;
28760;SDS011;15917;50.014;8.352;2022-07-23T06:22:31;8.20;;;5.03;;
28760;SDS011;15917;50.014;8.352;2022-07-23T06:24:57;9.50;;;5.45;;
28760;SDS011;15917;50.014;8.352;2022-07-23T06:27:23;12.45;;;5.65;;
28760;SDS011;15917;50.014;8.352;2022-07-23T06:29:48;10.23;;;5.70;;
28760;SDS011;15917;50.014;8.352;2022-07-23T06:32:15;9.55;;;5.40;;
28760;SDS011;15917;50.014;8.352;2022-07-23T06:34:42;9.88;;;5.75;;
28760;SDS011;15917;50.014;8.352;2022-07-23T06:37:07;13.25;;;6.20;;
28760;SDS011;15917;50.014;8.352;2022-07-23T06:39:33;12.60;;;6.28;;
28760;SDS011;15917;50.014;8.352;2022-07-23T06:41:59;13.05;;;6.20;;
28760;SDS011;15917;50.014;8.352;2022-07-23T06:44:35;13.98;;;6.05;;
28760;SDS011;15917;50.014;8.352;2022-07-23T06:47:01;8.98;;;5.40;;
28760;SDS011;15917;50.014;8.352;2022-07-23T06:49:27;10.30;;;5.50;;
28760;SDS011;15917;50.014;8.352;2022-07-23T06:51:56;17.10;;;6.93;;
28760;SDS011;15917;50.014;8.352;2022-07-23T06:54:21;17.38;;;6.93;;
28760;SDS011;15917;50.014;8.352;2022-07-23T06:56:47;11.13;;;5.93;;
28760;SDS011;15917;50.014;8.352;2022-07-23T06:59:14;13.00;;;6.05;;
28760;SDS011;15917;50.014;8.352;2022-07-23T07:01:42;18.98;;;6.63;;
28760;SDS011;15917;50.014;8.352;2022-07-23T07:04:08;13.85;;;7.13;;
28760;SDS011;15917;50.014;8.352;2022-07-23T07:06:34;8.35;;;5.97;;
28760;SDS011;15917;50.014;8.352;2022-07-23T07:08:59;13.85;;;5.88;;
28760;SDS011;15917;50.014;8.352;2022-07-23T07:11:25;12.90;;;6.13;;
28760;SDS011;15917;50.014;8.352;2022-07-23T07:13:51;8.55;;;5.72;;
28760;SDS011;15917;50.014;8.352;2022-07-23T07:16:16;11.40;;;5.57;;
28760;SDS011;15917;50.014;8.352;2022-07-23T07:18:42;10.52;;;5.90;;
28760;SDS011;15917;50.014;8.352;2022-07-23T07:21:08;10.32;;;6.40;;
28760;SDS011;15917;50.014;8.352;2022-07-23T07:23:34;10.25;;;5.38;;
28760;SDS011;15917;50.014;8.352;2022-07-23T07:25:59;15.85;;;6.22;;
28760;SDS011;15917;50.014;8.352;2022-07-23T07:28:25;9.45;;;5.70;;
28760;SDS011;15917;50.014;8.352;2022-07-23T07:30:51;15.23;;;6.10;;
28760;SDS011;15917;50.014;8.352;2022-07-23T07:33:16;13.48;;;6.75;;
28760;SDS011;15917;50.014;8.352;2022-07-23T07:35:42;11.57;;;6.00;;
28760;SDS011;15917;50.014;8.352;2022-07-23T07:38:08;9.05;;;5.78;;
28760;SDS011;15917;50.014;8.352;2022-07-23T07:40:33;11.93;;;6.05;;
28760;SDS011;15917;50.014;8.352;2022-07-23T07:42:59;7.80;;;5.65;;
28760;SDS011;15917;50.014;8.352;2022-07-23T07:45:26;19.00;;;6.38;;
28760;SDS011;15917;50.014;8.352;2022-07-23T07:47:52;14.68;;;6.57;;
28760;SDS011;15917;50.014;8.352;2022-07-23T07:50:18;13.50;;;6.20;;
28760;SDS011;15917;50.014;8.352;2022-07-23T07:52:44;24.00;;;6.28;;
28760;SDS011;15917;50.014;8.352;2022-07-23T07:55:10;8.48;;;5.32;;
28760;SDS011;15917;50.014;8.352;2022-07-23T07:57:36;14.80;;;6.57;;
28760;SDS011;15917;50.014;8.352;2022-07-23T08:00:03;9.25;;;6.35;;
28760;SDS011;15917;50.014;8.352;2022-07-23T08:02:47;11.23;;;5.50;;
28760;SDS011;15917;50.014;8.352;2022-07-23T08:05:14;12.30;;;5.68;;
28760;SDS011;15917;50.014;8.352;2022-07-23T08:07:40;12.65;;;6.30;;
28760;SDS011;15917;50.014;8.352;2022-07-23T08:10:07;8.50;;;5.20;;
28760;SDS011;15917;50.014;8.352;2022-07-23T08:12:47;7.72;;;5.32;;
28760;SDS011;15917;50.014;8.352;2022-07-23T08:15:15;7.03;;;4.90;;
28760;SDS011;15917;50.014;8.352;2022-07-23T08:17:44;7.70;;;5.40;;
28760;SDS011;15917;50.014;8.352;2022-07-23T08:20:11;11.45;;;4.90;;
28760;SDS011;15917;50.014;8.352;2022-07-23T08:22:42;11.45;;;5.65;;
28760;SDS011;15917;50.014;8.352;2022-07-23T08:25:20;12.93;;;5.20;;
28760;SDS011;15917;50.014;8.352;2022-07-23T08:27:47;9.07;;;5.18;;
28760;SDS011;15917;50.014;8.352;2022-07-23T08:30:14;11.17;;;5.57;;
28760;SDS011;15917;50.014;8.352;2022-07-23T08:32:57;13.13;;;5.72;;
28760;SDS011;15917;50.014;8.352;2022-07-23T08:35:29;8.90;;;4.85;;
28760;SDS011;15917;50.014;8.352;2022-07-23T08:38:00;9.10;;;5.28;;
28760;SDS011;15917;50.014;8.352;2022-07-23T08:40:30;9.10;;;5.38;;
28760;SDS011;15917;50.014;8.352;2022-07-23T08:42:57;8.35;;;5.03;;
28760;SDS011;15917;50.014;8.352;2022-07-23T08:45:24;7.53;;;4.43;;
28760;SDS011;15917;50.014;8.352;2022-07-23T08:50:21;8.73;;;5.28;;
28760;SDS011;15917;50.014;8.352;2022-07-23T08:52:48;8.05;;;4.50;;
28760;SDS011;15917;50.014;8.352;2022-07-23T08:55:16;7.30;;;4.18;;
28760;SDS011;15917;50.014;8.352;2022-07-23T08:57:42;8.50;;;4.18;;
28760;SDS011;15917;50.014;8.352;2022-07-23T09:00:12;8.90;;;4.57;;
28760;SDS011;15917;50.014;8.352;2022-07-23T09:02:41;6.28;;;4.25;;
28760;SDS011;15917;50.014;8.352;2022-07-23T09:05:09;12.52;;;4.13;;
28760;SDS011;15917;50.014;8.352;2022-07-23T09:07:36;6.40;;;4.07;;
28760;SDS011;15917;50.014;8.352;2022-07-23T09:10:07;8.43;;;4.40;;
28760;SDS011;15917;50.014;8.352;2022-07-23T09:12:34;7.68;;;4.43;;
28760;SDS011;15917;50.014;8.352;2022-07-23T09:15:06;8.70;;;4.53;;
28760;SDS011;15917;50.014;8.352;2022-07-23T09:17:40;10.02;;;4.72;;
28760;SDS011;15917;50.014;8.352;2022-07-23T09:20:11;7.30;;;3.67;;
28760;SDS011;15917;50.014;8.352;2022-07-23T09:22:40;5.35;;;3.40;;
28760;SDS011;15917;50.014;8.352;2022-07-23T09:25:12;6.93;;;3.90;;
28760;SDS011;15917;50.014;8.352;2022-07-23T09:27:49;6.90;;;4.50;;
28760;SDS011;15917;50.014;8.352;2022-07-23T09:30:25;6.53;;;3.63;;
28760;SDS011;15917;50.014;8.352;2022-07-23T09:35:43;5.70;;;3.53;;
28760;SDS011;15917;50.014;8.352;2022-07-23T09:38:08;4.75;;;3.50;;
28760;SDS011;15917;50.014;8.352;2022-07-23T09:40:34;5.63;;;3.47;;
28760;SDS011;15917;50.014;8.352;2022-07-23T09:43:00;5.40;;;3.35;;
28760;SDS011;15917;50.014;8.352;2022-07-23T09:45:25;3.92;;;2.58;;
28760;SDS011;15917;50.014;8.352;2022-07-23T09:47:51;6.88;;;3.10;;
28760;SDS011;15917;50.014;8.352;2022-07-23T09:50:36;4.55;;;3.28;;
28760;SDS011;15917;50.014;8.352;2022-07-23T09:53:02;5.57;;;3.53;;
28760;SDS011;15917;50.014;8.352;2022-07-23T09:55:31;7.35;;;3.10;;
28760;SDS011;15917;50.014;8.352;2022-07-23T09:58:07;6.00;;;3.65;;
28760;SDS011;15917;50.014;8.352;2022-07-23T10:00:39;4.95;;;3.15;;
28760;SDS011;15917;50.014;8.352;2022-07-23T10:03:06;3.30;;;2.78;;
28760;SDS011;15917;50.014;8.352;2022-07-23T10:05:51;5.05;;;3.40;;
28760;SDS011;15917;50.014;8.352;2022-07-23T10:08:41;3.75;;;3.25;;
28760;SDS011;15917;50.014;8.352;2022-07-23T10:11:37;4.28;;;3.13;;
28760;SDS011;15917;50.014;8.352;2022-07-23T10:14:15;5.85;;;3.17;;
28760;SDS011;15917;50.014;8.352;2022-07-23T10:16:55;4.03;;;3.00;;
28760;SDS011;15917;50.014;8.352;2022-07-23T10:19:21;5.40;;;3.28;;
28760;SDS011;15917;50.014;8.352;2022-07-23T10:21:49;9.73;;;3.17;;
28760;SDS011;15917;50.014;8.352;2022-07-23T10:30:26;5.40;;;3.50;;
28760;SDS011;15917;50.014;8.352;2022-07-23T10:35:43;5.15;;;3.50;;
28760;SDS011;15917;50.014;8.352;2022-07-23T10:38:24;8.82;;;3.67;;
28760;SDS011;15917;50.014;8.352;2022-07-23T10:40:59;5.70;;;3.63;;
28760;SDS011;15917;50.014;8.352;2022-07-23T10:43:26;8.30;;;4.13;;
28760;SDS011;15917;50.014;8.352;2022-07-23T10:45:52;15.23;;;4.20;;
28760;SDS011;15917;50.014;8.352;2022-07-23T10:48:19;10.68;;;3.92;;
28760;SDS011;15917;50.014;8.352;2022-07-23T10:51:10;5.50;;;3.38;;
28760;SDS011;15917;50.014;8.352;2022-07-23T10:56:15;6.47;;;4.53;;
28760;SDS011;15917;50.014;8.352;2022-07-23T10:58:48;10.48;;;4.80;;
28760;SDS011;15917;50.014;8.352;2022-07-23T11:01:33;8.18;;;4.55;;
28760;SDS011;15917;50.014;8.352;2022-07-23T11:04:01;7.30;;;3.95;;
28760;SDS011;15917;50.014;8.352;2022-07-23T11:12:51;6.78;;;3.78;;
28760;SDS011;15917;50.014;8.352;2022-07-23T11:14:57;7.50;;;4.47;;
28760;SDS011;15917;50.014;8.352;2022-07-23T11:17:26;8.85;;;4.38;;
28760;SDS011;15917;50.014;8.352;2022-07-23T11:25:10;5.40;;;3.65;;
28760;SDS011;15917;50.014;8.352;2022-07-23T11:30:03;8.85;;;4.45;;
28760;SDS011;15917;50.014;8.352;2022-07-23T11:32:30;12.90;;;3.83;;
28760;SDS011;15917;50.014;8.352;2022-07-23T11:34:59;4.82;;;3.15;;
28760;SDS011;15917;50.014;8.352;2022-07-23T11:37:33;10.48;;;4.07;;
28760;SDS011;15917;50.014;8.352;2022-07-23T11:40:08;5.90;;;3.85;;
28760;SDS011;15917;50.014;8.352;2022-07-23T11:42:51;7.03;;;3.58;;
28760;SDS011;15917;50.014;8.352;2022-07-23T11:45:19;8.70;;;3.97;;
28760;SDS011;15917;50.014;8.352;2022-07-23T11:47:46;5.90;;;3.55;;
28760;SDS011;15917;50.014;8.352;2022-07-23T11:50:11;6.55;;;4.13;;
28760;SDS011;15917;50.014;8.352;2022-07-23T11:52:38;6.82;;;3.88;;
28760;SDS011;15917;50.014;8.352;2022-07-23T11:55:08;4.57;;;3.38;;
28760;SDS011;15917;50.014;8.352;2022-07-23T11:57:37;6.55;;;3.58;;
28760;SDS011;15917;50.014;8.352;2022-07-23T12:02:40;7.28;;;4.00;;
28760;SDS011;15917;50.014;8.352;2022-07-23T12:05:10;5.93;;;4.07;;
28760;SDS011;15917;50.014;8.352;2022-07-23T12:07:42;4.45;;;3.70;;
28760;SDS011;15917;50.014;8.352;2022-07-23T12:12:53;9.63;;;4.07;;
28760;SDS011;15917;50.014;8.352;2022-07-23T12:15:21;5.85;;;3.25;;
28760;SDS011;15917;50.014;8.352;2022-07-23T12:17:49;7.03;;;4.05;;
28760;SDS011;15917;50.014;8.352;2022-07-23T12:20:18;6.18;;;3.22;;
28760;SDS011;15917;50.014;8.352;2022-07-23T12:22:48;8.73;;;4.15;;
28760;SDS011;15917;50.014;8.352;2022-07-23T12:25:16;7.47;;;3.72;;
28760;SDS011;15917;50.014;8.352;2022-07-23T12:27:44;4.50;;;3.60;;
28760;SDS011;15917;50.014;8.352;2022-07-23T12:30:17;5.80;;;3.90;;
28760;SDS011;15917;50.014;8.352;2022-07-23T12:32:49;5.35;;;3.65;;
28760;SDS011;15917;50.014;8.352;2022-07-23T12:35:17;6.07;;;4.13;;
28760;SDS011;15917;50.014;8.352;2022-07-23T12:37:43;8.95;;;3.95;;
28760;SDS011;15917;50.014;8.352;2022-07-23T12:42:46;7.65;;;3.70;;
28760;SDS011;15917;50.014;8.352;2022-07-23T12:45:13;6.03;;;3.67;;
28760;SDS011;15917;50.014;8.352;2022-07-23T12:50:44;7.43;;;4.03;;
28760;SDS011;15917;50.014;8.352;2022-07-23T12:53:15;5.07;;;3.67;;
28760;SDS011;15917;50.014;8.352;2022-07-23T12:55:43;5.28;;;3.47;;
28760;SDS011;15917;50.014;8.352;2022-07-23T12:58:11;6.80;;;4.03;;
28760;SDS011;15917;50.014;8.352;2022-07-23T13:03:31;5.97;;;4.28;;
28760;SDS011;15917;50.014;8.352;2022-07-23T13:05:59;8.40;;;4.60;;
28760;SDS011;15917;50.014;8.352;2022-07-23T13:08:26;7.72;;;4.18;;
28760;SDS011;15917;50.014;8.352;2022-07-23T13:10:53;5.93;;;3.92;;
28760;SDS011;15917;50.014;8.352;2022-07-23T13:13:21;7.07;;;3.50;;
28760;SDS011;15917;50.014;8.352;2022-07-23T13:15:48;9.23;;;4.45;;
28760;SDS011;15917;50.014;8.352;2022-07-23T13:18:14;6.82;;;3.80;;
28760;SDS011;15917;50.014;8.352;2022-07-23T13:20:41;5.50;;;3.38;;
28760;SDS011;15917;50.014;8.352;2022-07-23T13:23:08;7.70;;;4.10;;
28760;SDS011;15917;50.014;8.352;2022-07-23T13:25:34;5.40;;;3.67;;
28760;SDS011;15917;50.014;8.352;2022-07-23T13:28:00;4.90;;;3.47;;
28760;SDS011;15917;50.014;8.352;2022-07-23T13:30:25;6.15;;;3.88;;
28760;SDS011;15917;50.014;8.352;2022-07-23T13:32:51;8.38;;;3.80;;
28760;SDS011;15917;50.014;8.352;2022-07-23T13:35:17;6.25;;;3.72;;
28760;SDS011;15917;50.014;8.352;2022-07-23T13:37:42;6.85;;;3.63;;
28760;SDS011;15917;50.014;8.352;2022-07-23T13:40:08;11.60;;;3.85;;
28760;SDS011;15917;50.014;8.352;2022-07-23T13:42:34;6.82;;;3.60;;
28760;SDS011;15917;50.014;8.352;2022-07-23T13:45:00;5.68;;;3.85;;
28760;SDS011;15917;50.014;8.352;2022-07-23T13:47:26;7.85;;;3.63;;
28760;SDS011;15917;50.014;8.352;2022-07-23T13:49:52;10.15;;;4.00;;
28760;SDS011;15917;50.014;8.352;2022-07-23T13:52:18;7.13;;;3.97;;
28760;SDS011;15917;50.014;8.352;2022-07-23T13:54:43;5.25;;;3.78;;
28760;SDS011;15917;50.014;8.352;2022-07-23T13:57:09;5.50;;;3.75;;
28760;SDS011;15917;50.014;8.352;2022-07-23T13:59:35;6.00;;;4.10;;
28760;SDS011;15917;50.014;8.352;2022-07-23T14:02:02;5.50;;;3.85;;
28760;SDS011;15917;50.014;8.352;2022-07-23T14:04:30;9.32;;;4.00;;
28760;SDS011;15917;50.014;8.352;2022-07-23T14:06:56;13.82;;;4.22;;
28760;SDS011;15917;50.014;8.352;2022-07-23T14:09:22;8.45;;;4.03;;
28760;SDS011;15917;50.014;8.352;2022-07-23T14:11:48;7.03;;;3.50;;
28760;SDS011;15917;50.014;8.352;2022-07-23T14:14:16;7.32;;;3.33;;
28760;SDS011;15917;50.014;8.352;2022-07-23T14:16:42;5.13;;;3.83;;
28760;SDS011;15917;50.014;8.352;2022-07-23T14:19:08;7.07;;;4.13;;
28760;SDS011;15917;50.014;8.352;2022-07-23T14:21:35;6.05;;;3.58;;
28760;SDS011;15917;50.014;8.352;2022-07-23T14:24:01;7.05;;;3.78;;
28760;SDS011;15917;50.014;8.352;2022-07-23T14:26:27;9.98;;;3.92;;
28760;SDS011;15917;50.014;8.352;2022-07-23T14:28:52;4.68;;;3.28;;
28760;SDS011;15917;50.014;8.352;2022-07-23T14:31:18;6.30;;;3.97;;
28760;SDS011;15917;50.014;8.352;2022-07-23T14:33:44;4.65;;;3.92;;
28760;SDS011;15917;50.014;8.352;2022-07-23T14:36:12;9.05;;;3.72;;
28760;SDS011;15917;50.014;8.352;2022-07-23T14:38:38;5.75;;;3.25;;
28760;SDS011;15917;50.014;8.352;2022-07-23T14:41:03;6.57;;;4.05;;
28760;SDS011;15917;50.014;8.352;2022-07-23T14:43:32;6.65;;;4.10;;
28760;SDS011;15917;50.014;8.352;2022-07-23T14:45:58;5.75;;;3.80;;
28760;SDS011;15917;50.014;8.352;2022-07-23T14:48:23;5.97;;;3.83;;
28760;SDS011;15917;50.014;8.352;2022-07-23T14:50:49;6.35;;;4.07;;
28760;SDS011;15917;50.014;8.352;2022-07-23T14:53:15;5.28;;;3.38;;
28760;SDS011;15917;50.014;8.352;2022-07-23T14:55:40;6.35;;;3.97;;
28760;SDS011;15917;50.014;8.352;2022-07-23T14:58:06;6.43;;;3.50;;
28760;SDS011;15917;50.014;8.352;2022-07-23T15:00:32;4.13;;;3.72;;
28760;SDS011;15917;50.014;8.352;2022-07-23T15:02:58;5.57;;;3.42;;
28760;SDS011;15917;50.014;8.352;2022-07-23T15:05:23;4.85;;;3.35;;
28760;SDS011;15917;50.014;8.352;2022-07-23T15:07:49;6.50;;;3.88;;
28760;SDS011;15917;50.014;8.352;2022-07-23T15:10:15;10.43;;;3.80;;
28760;SDS011;15917;50.014;8.352;2022-07-23T15:12:41;4.50;;;3.38;;
28760;SDS011;15917;50.014;8.352;2022-07-23T15:15:07;4.35;;;3.33;;
28760;SDS011;15917;50.014;8.352;2022-07-23T15:17:33;6.20;;;3.10;;
28760;SDS011;15917;50.014;8.352;2022-07-23T15:19:58;5.03;;;2.85;;
28760;SDS011;15917;50.014;8.352;2022-07-23T15:22:24;5.07;;;3.47;;
28760;SDS011;15917;50.014;8.352;2022-07-23T15:24:50;10.80;;;3.70;;
28760;SDS011;15917;50.014;8.352;2022-07-23T15:27:16;4.82;;;3.40;;
28760;SDS011;15917;50.014;8.352;2022-07-23T15:29:43;7.03;;;3.60;;
28760;SDS011;15917;50.014;8.352;2022-07-23T15:32:09;4.60;;;3.03;;